sensor_id;sensor_type;location;lat;lon;timestamp;temperature;humidity
46890;DHT22;32625;51.080;16.970;2022-12-07T00:01:22;2.70;99.90
46890;DHT22;32625;51.080;16.970;2022-12-07T00:03:52;2.70;99.90
46890;DHT22;32625;51.080;16.970;2022-12-07T00:06:20;2.70;99.90
46890;DHT22;32625;51.080;16.970;2022-12-07T00:08:48;2.70;99.90
46890;DHT22;32625;51.080;16.970;2022-12-07T00:11:17;2.70;99.90
46890;DHT22;32625;51.080;16.970;2022-12-07T00:13:45;2.70;99.90
46890;DHT22;32625;51.080;16.970;2022-12-07T00:16:17;2.70;99.90
46890;DHT22;32625;51.080;16.970;2022-12-07T00:18:46;2.60;99.90
46890;DHT22;32625;51.080;16.970;2022-12-07T00:21:22;2.60;99.90
46890;DHT22;32625;51.080;16.970;2022-12-07T00:23:51;2.70;99.90
46890;DHT22;32625;51.080;16.970;2022-12-07T00:26:22;2.70;99.90
46890;DHT22;32625;51.080;16.970;2022-12-07T00:28:52;2.70;99.90
46890;DHT22;32625;51.080;16.970;2022-12-07T00:31:22;2.60;99.90
46890;DHT22;32625;51.080;16.970;2022-12-07T00:33:50;2.60;99.90
46890;DHT22;32625;51.080;16.970;2022-12-07T00:36:19;2.60;99.90
46890;DHT22;32625;51.080;16.970;2022-12-07T00:38:56;2.60;99.90
46890;DHT22;32625;51.080;16.970;2022-12-07T00:41:26;2.60;99.90
46890;DHT22;32625;51.080;16.970;2022-12-07T00:43:54;2.60;99.90
46890;DHT22;32625;51.080;16.970;2022-12-07T00:46:21;2.70;99.90
46890;DHT22;32625;51.080;16.970;2022-12-07T00:48:50;2.60;99.90
46890;DHT22;32625;51.080;16.970;2022-12-07T00:51:20;2.60;99.90
46890;DHT22;32625;51.080;16.970;2022-12-07T00:53:48;2.60;99.90
46890;DHT22;32625;51.080;16.970;2022-12-07T00:56:18;2.70;99.90
46890;DHT22;32625;51.080;16.970;2022-12-07T00:58:57;2.70;99.90
46890;DHT22;32625;51.080;16.970;2022-12-07T01:01:27;2.70;99.90
46890;DHT22;32625;51.080;16.970;2022-12-07T01:03:55;2.70;99.90
46890;DHT22;32625;51.080;16.970;2022-12-07T01:06:24;2.70;99.90
46890;DHT22;32625;51.080;16.970;2022-12-07T01:08:51;2.70;99.90
46890;DHT22;32625;51.080;16.970;2022-12-07T01:11:22;2.70;99.90
46890;DHT22;32625;51.080;16.970;2022-12-07T01:13:51;2.60;99.90
46890;DHT22;32625;51.080;16.970;2022-12-07T01:16:18;2.60;99.90
46890;DHT22;32625;51.080;16.970;2022-12-07T01:18:48;2.60;99.90
46890;DHT22;32625;51.080;16.970;2022-12-07T01:21:19;2.60;99.90
46890;DHT22;32625;51.080;16.970;2022-12-07T01:23:48;2.70;99.90
46890;DHT22;32625;51.080;16.970;2022-12-07T01:26:18;2.60;99.90
46890;DHT22;32625;51.080;16.970;2022-12-07T01:28:45;2.60;99.90
46890;DHT22;32625;51.080;16.970;2022-12-07T01:31:15;2.50;99.90
46890;DHT22;32625;51.080;16.970;2022-12-07T01:33:48;2.50;99.90
46890;DHT22;32625;51.080;16.970;2022-12-07T01:38:45;2.50;99.90
46890;DHT22;32625;51.080;16.970;2022-12-07T01:41:14;2.50;99.90
46890;DHT22;32625;51.080;16.970;2022-12-07T01:44:18;2.50;99.90
46890;DHT22;32625;51.080;16.970;2022-12-07T01:46:48;2.50;99.90
46890;DHT22;32625;51.080;16.970;2022-12-07T01:51:57;2.60;99.90
46890;DHT22;32625;51.080;16.970;2022-12-07T01:54:25;2.70;99.90
46890;DHT22;32625;51.080;16.970;2022-12-07T01:56:55;2.60;99.90
46890;DHT22;32625;51.080;16.970;2022-12-07T01:59:24;2.50;99.90
46890;DHT22;32625;51.080;16.970;2022-12-07T02:01:54;2.50;99.90
46890;DHT22;32625;51.080;16.970;2022-12-07T02:04:22;2.50;99.90
46890;DHT22;32625;51.080;16.970;2022-12-07T02:06:50;2.40;99.90
46890;DHT22;32625;51.080;16.970;2022-12-07T02:09:18;2.40;99.90
46890;DHT22;32625;51.080;16.970;2022-12-07T02:11:45;2.50;99.90
46890;DHT22;32625;51.080;16.970;2022-12-07T02:14:12;2.50;99.90
46890;DHT22;32625;51.080;16.970;2022-12-07T02:16:55;2.40;99.90
46890;DHT22;32625;51.080;16.970;2022-12-07T02:30:22;2.30;99.90
46890;DHT22;32625;51.080;16.970;2022-12-07T02:33:02;2.30;99.90
46890;DHT22;32625;51.080;16.970;2022-12-07T02:38:16;2.30;99.90
46890;DHT22;32625;51.080;16.970;2022-12-07T02:40:52;2.30;99.90
46890;DHT22;32625;51.080;16.970;2022-12-07T02:43:25;2.30;99.90
46890;DHT22;32625;51.080;16.970;2022-12-07T02:45:56;2.30;99.90
46890;DHT22;32625;51.080;16.970;2022-12-07T02:48:26;2.30;99.90
46890;DHT22;32625;51.080;16.970;2022-12-07T02:50:54;2.20;99.90
46890;DHT22;32625;51.080;16.970;2022-12-07T02:53:39;2.20;99.90
46890;DHT22;32625;51.080;16.970;2022-12-07T03:06:43;2.30;99.90
46890;DHT22;32625;51.080;16.970;2022-12-07T03:09:43;2.30;99.90
46890;DHT22;32625;51.080;16.970;2022-12-07T03:12:18;2.40;99.90
46890;DHT22;32625;51.080;16.970;2022-12-07T03:14:52;2.40;99.90
46890;DHT22;32625;51.080;16.970;2022-12-07T03:17:26;2.40;99.90
46890;DHT22;32625;51.080;16.970;2022-12-07T03:19:58;2.30;99.90
46890;DHT22;32625;51.080;16.970;2022-12-07T03:22:30;2.20;99.90
46890;DHT22;32625;51.080;16.970;2022-12-07T03:25:02;2.30;99.90
46890;DHT22;32625;51.080;16.970;2022-12-07T03:27:35;2.20;99.90
46890;DHT22;32625;51.080;16.970;2022-12-07T03:30:24;2.40;99.90
46890;DHT22;32625;51.080;16.970;2022-12-07T03:33:09;2.30;99.90
46890;DHT22;32625;51.080;16.970;2022-12-07T03:35:45;2.30;99.90
46890;DHT22;32625;51.080;16.970;2022-12-07T03:41:11;2.30;99.90
46890;DHT22;32625;51.080;16.970;2022-12-07T03:43:41;2.30;99.90
46890;DHT22;32625;51.080;16.970;2022-12-07T03:46:15;2.30;99.90
46890;DHT22;32625;51.080;16.970;2022-12-07T03:51:37;2.40;99.90
46890;DHT22;32625;51.080;16.970;2022-12-07T03:54:15;2.30;99.90
46890;DHT22;32625;51.080;16.970;2022-12-07T03:56:47;2.30;99.90
46890;DHT22;32625;51.080;16.970;2022-12-07T03:59:15;2.40;99.90
46890;DHT22;32625;51.080;16.970;2022-12-07T04:01:56;2.40;99.90
46890;DHT22;32625;51.080;16.970;2022-12-07T04:04:24;2.40;99.90
46890;DHT22;32625;51.080;16.970;2022-12-07T04:06:52;2.30;99.90
46890;DHT22;32625;51.080;16.970;2022-12-07T04:09:19;2.20;99.90
46890;DHT22;32625;51.080;16.970;2022-12-07T04:11:46;2.30;99.90
46890;DHT22;32625;51.080;16.970;2022-12-07T04:14:14;2.30;99.90
46890;DHT22;32625;51.080;16.970;2022-12-07T04:16:55;2.20;99.90
46890;DHT22;32625;51.080;16.970;2022-12-07T04:19:25;2.30;99.90
46890;DHT22;32625;51.080;16.970;2022-12-07T04:21:53;2.30;99.90
46890;DHT22;32625;51.080;16.970;2022-12-07T04:24:21;2.30;99.90
46890;DHT22;32625;51.080;16.970;2022-12-07T04:26:49;2.30;99.90
46890;DHT22;32625;51.080;16.970;2022-12-07T04:29:16;2.30;99.90
46890;DHT22;32625;51.080;16.970;2022-12-07T04:31:44;2.30;99.90
46890;DHT22;32625;51.080;16.970;2022-12-07T04:34:12;2.30;99.90
46890;DHT22;32625;51.080;16.970;2022-12-07T04:36:40;2.20;99.90
46890;DHT22;32625;51.080;16.970;2022-12-07T04:39:09;2.30;99.90
46890;DHT22;32625;51.080;16.970;2022-12-07T04:41:41;2.30;99.90
46890;DHT22;32625;51.080;16.970;2022-12-07T04:44:08;2.30;99.90
46890;DHT22;32625;51.080;16.970;2022-12-07T04:46:35;2.30;99.90
46890;DHT22;32625;51.080;16.970;2022-12-07T04:49:03;2.40;99.90
46890;DHT22;32625;51.080;16.970;2022-12-07T04:51:30;2.40;99.90
46890;DHT22;32625;51.080;16.970;2022-12-07T04:53:57;2.30;99.90
46890;DHT22;32625;51.080;16.970;2022-12-07T04:56:25;2.30;99.90
46890;DHT22;32625;51.080;16.970;2022-12-07T04:58:53;2.30;99.90
46890;DHT22;32625;51.080;16.970;2022-12-07T05:01:22;2.30;99.90
46890;DHT22;32625;51.080;16.970;2022-12-07T05:03:50;2.30;99.90
46890;DHT22;32625;51.080;16.970;2022-12-07T05:06:17;2.30;99.90
46890;DHT22;32625;51.080;16.970;2022-12-07T05:08:44;2.30;99.90
46890;DHT22;32625;51.080;16.970;2022-12-07T05:11:12;2.30;99.90
46890;DHT22;32625;51.080;16.970;2022-12-07T05:14:00;2.40;99.90
46890;DHT22;32625;51.080;16.970;2022-12-07T05:16:28;2.30;99.90
46890;DHT22;32625;51.080;16.970;2022-12-07T05:18:56;2.40;99.90
46890;DHT22;32625;51.080;16.970;2022-12-07T05:21:23;2.40;99.90
46890;DHT22;32625;51.080;16.970;2022-12-07T05:23:50;2.30;99.90
46890;DHT22;32625;51.080;16.970;2022-12-07T05:26:18;2.50;99.90
46890;DHT22;32625;51.080;16.970;2022-12-07T05:28:45;2.40;99.90
46890;DHT22;32625;51.080;16.970;2022-12-07T05:31:16;2.30;99.90
46890;DHT22;32625;51.080;16.970;2022-12-07T05:33:43;2.30;99.90
46890;DHT22;32625;51.080;16.970;2022-12-07T05:36:10;2.30;99.90
46890;DHT22;32625;51.080;16.970;2022-12-07T05:38:37;2.30;99.90
46890;DHT22;32625;51.080;16.970;2022-12-07T05:41:06;2.40;99.90
46890;DHT22;32625;51.080;16.970;2022-12-07T05:43:33;2.40;99.90
46890;DHT22;32625;51.080;16.970;2022-12-07T05:46:00;2.40;99.90
46890;DHT22;32625;51.080;16.970;2022-12-07T05:48:28;2.40;99.90
46890;DHT22;32625;51.080;16.970;2022-12-07T05:50:55;2.40;99.90
46890;DHT22;32625;51.080;16.970;2022-12-07T05:53:22;2.40;99.90
46890;DHT22;32625;51.080;16.970;2022-12-07T05:55:49;2.40;99.90
46890;DHT22;32625;51.080;16.970;2022-12-07T05:58:16;2.40;99.90
46890;DHT22;32625;51.080;16.970;2022-12-07T06:01:02;2.40;99.90
46890;DHT22;32625;51.080;16.970;2022-12-07T06:03:29;2.40;99.90
46890;DHT22;32625;51.080;16.970;2022-12-07T06:05:56;2.40;99.90
46890;DHT22;32625;51.080;16.970;2022-12-07T06:08:23;2.30;99.90
46890;DHT22;32625;51.080;16.970;2022-12-07T06:10:50;2.30;99.90
46890;DHT22;32625;51.080;16.970;2022-12-07T06:13:37;2.40;99.90
46890;DHT22;32625;51.080;16.970;2022-12-07T06:16:12;2.30;99.90
46890;DHT22;32625;51.080;16.970;2022-12-07T06:18:41;2.40;99.90
46890;DHT22;32625;51.080;16.970;2022-12-07T06:21:08;2.40;99.90
46890;DHT22;32625;51.080;16.970;2022-12-07T06:23:35;2.40;99.90
46890;DHT22;32625;51.080;16.970;2022-12-07T06:26:03;2.30;99.90
46890;DHT22;32625;51.080;16.970;2022-12-07T06:28:30;2.40;99.90
46890;DHT22;32625;51.080;16.970;2022-12-07T06:31:01;2.40;99.90
46890;DHT22;32625;51.080;16.970;2022-12-07T06:33:29;2.40;99.90
46890;DHT22;32625;51.080;16.970;2022-12-07T06:35:56;2.40;99.90
46890;DHT22;32625;51.080;16.970;2022-12-07T06:38:23;2.40;99.90
46890;DHT22;32625;51.080;16.970;2022-12-07T06:40:51;2.40;99.90
46890;DHT22;32625;51.080;16.970;2022-12-07T06:43:18;2.40;99.90
46890;DHT22;32625;51.080;16.970;2022-12-07T06:45:45;2.40;99.90
46890;DHT22;32625;51.080;16.970;2022-12-07T06:48:13;2.30;99.90
46890;DHT22;32625;51.080;16.970;2022-12-07T06:50:41;2.40;99.90
46890;DHT22;32625;51.080;16.970;2022-12-07T06:53:09;2.40;99.90
46890;DHT22;32625;51.080;16.970;2022-12-07T06:55:36;2.40;99.90
46890;DHT22;32625;51.080;16.970;2022-12-07T06:58:03;2.40;99.90
46890;DHT22;32625;51.080;16.970;2022-12-07T07:00:30;2.40;99.90
46890;DHT22;32625;51.080;16.970;2022-12-07T07:02:57;2.40;99.90
46890;DHT22;32625;51.080;16.970;2022-12-07T07:05:24;2.40;99.90
46890;DHT22;32625;51.080;16.970;2022-12-07T07:07:52;2.30;99.90
46890;DHT22;32625;51.080;16.970;2022-12-07T07:10:39;2.30;99.90
46890;DHT22;32625;51.080;16.970;2022-12-07T07:13:07;2.40;99.90
46890;DHT22;32625;51.080;16.970;2022-12-07T07:15:36;2.40;99.90
46890;DHT22;32625;51.080;16.970;2022-12-07T07:18:04;2.40;99.90
46890;DHT22;32625;51.080;16.970;2022-12-07T07:20:34;2.40;99.90
46890;DHT22;32625;51.080;16.970;2022-12-07T07:23:01;2.40;99.90
46890;DHT22;32625;51.080;16.970;2022-12-07T07:25:28;2.30;99.90
46890;DHT22;32625;51.080;16.970;2022-12-07T07:27:56;2.30;99.90
46890;DHT22;32625;51.080;16.970;2022-12-07T07:30:23;2.30;99.90
46890;DHT22;32625;51.080;16.970;2022-12-07T07:32:50;2.30;99.90
46890;DHT22;32625;51.080;16.970;2022-12-07T07:35:18;2.30;99.90
46890;DHT22;32625;51.080;16.970;2022-12-07T07:37:45;2.40;99.90
46890;DHT22;32625;51.080;16.970;2022-12-07T07:40:12;2.50;99.90
46890;DHT22;32625;51.080;16.970;2022-12-07T07:42:39;2.60;99.90
46890;DHT22;32625;51.080;16.970;2022-12-07T07:45:07;2.60;99.90
46890;DHT22;32625;51.080;16.970;2022-12-07T07:47:35;2.60;99.90
46890;DHT22;32625;51.080;16.970;2022-12-07T07:50:02;2.60;99.90
46890;DHT22;32625;51.080;16.970;2022-12-07T07:52:30;2.70;99.90
46890;DHT22;32625;51.080;16.970;2022-12-07T07:54:58;2.60;99.90
46890;DHT22;32625;51.080;16.970;2022-12-07T07:57:25;2.60;99.90
46890;DHT22;32625;51.080;16.970;2022-12-07T07:59:52;2.70;99.90
46890;DHT22;32625;51.080;16.970;2022-12-07T08:02:21;2.70;99.90
46890;DHT22;32625;51.080;16.970;2022-12-07T08:04:48;2.70;99.90
46890;DHT22;32625;51.080;16.970;2022-12-07T08:07:16;2.60;99.90
46890;DHT22;32625;51.080;16.970;2022-12-07T08:09:43;2.50;99.90
46890;DHT22;32625;51.080;16.970;2022-12-07T08:12:10;2.50;99.90
46890;DHT22;32625;51.080;16.970;2022-12-07T08:14:37;2.50;99.90
46890;DHT22;32625;51.080;16.970;2022-12-07T08:17:05;2.50;99.90
46890;DHT22;32625;51.080;16.970;2022-12-07T08:19:32;2.40;99.90
46890;DHT22;32625;51.080;16.970;2022-12-07T08:22:00;2.40;99.90
46890;DHT22;32625;51.080;16.970;2022-12-07T08:24:27;2.40;99.90
46890;DHT22;32625;51.080;16.970;2022-12-07T08:26:54;2.40;99.90
46890;DHT22;32625;51.080;16.970;2022-12-07T08:29:21;2.40;99.90
46890;DHT22;32625;51.080;16.970;2022-12-07T08:31:49;2.40;99.90
46890;DHT22;32625;51.080;16.970;2022-12-07T08:34:16;2.40;99.90
46890;DHT22;32625;51.080;16.970;2022-12-07T08:36:43;2.40;99.90
46890;DHT22;32625;51.080;16.970;2022-12-07T08:39:10;2.50;99.90
46890;DHT22;32625;51.080;16.970;2022-12-07T08:41:57;2.50;99.90
46890;DHT22;32625;51.080;16.970;2022-12-07T08:44:24;2.50;99.90
46890;DHT22;32625;51.080;16.970;2022-12-07T08:46:56;2.50;99.90
46890;DHT22;32625;51.080;16.970;2022-12-07T08:49:28;2.50;99.90
46890;DHT22;32625;51.080;16.970;2022-12-07T08:51:59;2.50;99.90
46890;DHT22;32625;51.080;16.970;2022-12-07T08:54:27;2.50;99.90
46890;DHT22;32625;51.080;16.970;2022-12-07T08:56:55;2.60;99.90
46890;DHT22;32625;51.080;16.970;2022-12-07T08:59:26;2.70;99.90
46890;DHT22;32625;51.080;16.970;2022-12-07T09:01:54;2.70;99.90
46890;DHT22;32625;51.080;16.970;2022-12-07T09:04:21;2.80;99.90
46890;DHT22;32625;51.080;16.970;2022-12-07T09:06:48;2.90;99.90
46890;DHT22;32625;51.080;16.970;2022-12-07T09:09:16;3.00;99.90
46890;DHT22;32625;51.080;16.970;2022-12-07T09:11:43;3.10;99.90
46890;DHT22;32625;51.080;16.970;2022-12-07T09:14:12;3.00;99.90
46890;DHT22;32625;51.080;16.970;2022-12-07T09:16:39;3.00;99.90
46890;DHT22;32625;51.080;16.970;2022-12-07T09:19:07;3.10;99.90
46890;DHT22;32625;51.080;16.970;2022-12-07T09:21:35;3.20;99.90
46890;DHT22;32625;51.080;16.970;2022-12-07T09:24:02;3.30;99.90
46890;DHT22;32625;51.080;16.970;2022-12-07T09:26:29;3.30;99.90
46890;DHT22;32625;51.080;16.970;2022-12-07T09:28:56;3.40;99.90
46890;DHT22;32625;51.080;16.970;2022-12-07T09:31:23;3.40;99.90
46890;DHT22;32625;51.080;16.970;2022-12-07T09:33:59;3.50;99.90
46890;DHT22;32625;51.080;16.970;2022-12-07T09:36:27;3.60;99.90
46890;DHT22;32625;51.080;16.970;2022-12-07T09:38:55;3.70;99.90
46890;DHT22;32625;51.080;16.970;2022-12-07T09:41:24;3.70;99.90
46890;DHT22;32625;51.080;16.970;2022-12-07T09:43:52;3.70;99.90
46890;DHT22;32625;51.080;16.970;2022-12-07T09:46:20;3.70;99.90
46890;DHT22;32625;51.080;16.970;2022-12-07T09:48:50;3.70;99.90
46890;DHT22;32625;51.080;16.970;2022-12-07T09:51:18;3.70;99.90
46890;DHT22;32625;51.080;16.970;2022-12-07T09:53:54;3.60;99.90
46890;DHT22;32625;51.080;16.970;2022-12-07T09:56:23;3.70;99.90
46890;DHT22;32625;51.080;16.970;2022-12-07T09:58:59;3.80;99.90
46890;DHT22;32625;51.080;16.970;2022-12-07T10:01:32;3.80;99.90
46890;DHT22;32625;51.080;16.970;2022-12-07T10:04:09;3.90;99.90
46890;DHT22;32625;51.080;16.970;2022-12-07T10:06:39;3.90;99.90
46890;DHT22;32625;51.080;16.970;2022-12-07T10:09:14;4.00;99.90
46890;DHT22;32625;51.080;16.970;2022-12-07T10:12:10;4.00;99.90
46890;DHT22;32625;51.080;16.970;2022-12-07T10:14:40;4.10;99.90
46890;DHT22;32625;51.080;16.970;2022-12-07T10:17:41;4.10;99.90
46890;DHT22;32625;51.080;16.970;2022-12-07T10:23:03;4.10;99.90
46890;DHT22;32625;51.080;16.970;2022-12-07T10:25:35;4.00;99.90
46890;DHT22;32625;51.080;16.970;2022-12-07T10:28:13;4.00;99.90
46890;DHT22;32625;51.080;16.970;2022-12-07T10:30:56;4.00;99.90
46890;DHT22;32625;51.080;16.970;2022-12-07T10:33:32;3.90;99.90
46890;DHT22;32625;51.080;16.970;2022-12-07T10:36:14;3.90;99.90
46890;DHT22;32625;51.080;16.970;2022-12-07T10:41:25;4.00;99.90
46890;DHT22;32625;51.080;16.970;2022-12-07T10:43:55;4.00;99.90
46890;DHT22;32625;51.080;16.970;2022-12-07T10:46:50;3.90;99.90
46890;DHT22;32625;51.080;16.970;2022-12-07T10:49:42;3.90;99.90
46890;DHT22;32625;51.080;16.970;2022-12-07T10:52:50;3.90;99.90
46890;DHT22;32625;51.080;16.970;2022-12-07T10:55:30;3.90;99.90
46890;DHT22;32625;51.080;16.970;2022-12-07T10:58:27;3.90;99.90
46890;DHT22;32625;51.080;16.970;2022-12-07T11:03:55;3.70;99.90
46890;DHT22;32625;51.080;16.970;2022-12-07T11:06:39;3.60;99.90
46890;DHT22;32625;51.080;16.970;2022-12-07T11:15:18;3.40;99.90
46890;DHT22;32625;51.080;16.970;2022-12-07T11:17:56;3.40;99.90
46890;DHT22;32625;51.080;16.970;2022-12-07T11:31:22;3.60;99.90
46890;DHT22;32625;51.080;16.970;2022-12-07T11:36:52;3.70;99.90
46890;DHT22;32625;51.080;16.970;2022-12-07T11:41:55;3.70;99.90
46890;DHT22;32625;51.080;16.970;2022-12-07T11:44:43;3.70;99.90
46890;DHT22;32625;51.080;16.970;2022-12-07T11:47:38;3.70;99.90
46890;DHT22;32625;51.080;16.970;2022-12-07T11:53:04;3.70;99.90
46890;DHT22;32625;51.080;16.970;2022-12-07T11:55:43;3.70;99.90
46890;DHT22;32625;51.080;16.970;2022-12-07T11:58:46;3.70;99.90
46890;DHT22;32625;51.080;16.970;2022-12-07T12:01:42;3.60;99.90
46890;DHT22;32625;51.080;16.970;2022-12-07T12:06:40;3.50;99.90
46890;DHT22;32625;51.080;16.970;2022-12-07T12:09:29;3.50;99.90
46890;DHT22;32625;51.080;16.970;2022-12-07T12:15:38;3.50;99.90
46890;DHT22;32625;51.080;16.970;2022-12-07T12:23:17;3.50;99.90
46890;DHT22;32625;51.080;16.970;2022-12-07T12:25:49;3.60;99.90
46890;DHT22;32625;51.080;16.970;2022-12-07T12:28:24;3.70;99.90
46890;DHT22;32625;51.080;16.970;2022-12-07T12:33:42;3.70;99.90
46890;DHT22;32625;51.080;16.970;2022-12-07T12:41:52;3.60;99.90
46890;DHT22;32625;51.080;16.970;2022-12-07T12:46:59;3.70;99.90
46890;DHT22;32625;51.080;16.970;2022-12-07T12:57:36;3.70;99.90
46890;DHT22;32625;51.080;16.970;2022-12-07T13:00:30;3.70;99.90
46890;DHT22;32625;51.080;16.970;2022-12-07T13:02:58;3.70;99.90
46890;DHT22;32625;51.080;16.970;2022-12-07T13:05:30;3.70;99.90
46890;DHT22;32625;51.080;16.970;2022-12-07T13:08:24;3.70;99.90
46890;DHT22;32625;51.080;16.970;2022-12-07T13:13:45;3.70;99.90
46890;DHT22;32625;51.080;16.970;2022-12-07T13:18:39;3.70;99.90
46890;DHT22;32625;51.080;16.970;2022-12-07T13:33:46;3.70;99.90
46890;DHT22;32625;51.080;16.970;2022-12-07T13:36:22;3.70;99.90
46890;DHT22;32625;51.080;16.970;2022-12-07T13:38:59;3.60;99.90
46890;DHT22;32625;51.080;16.970;2022-12-07T13:41:28;3.70;99.90
46890;DHT22;32625;51.080;16.970;2022-12-07T13:44:17;3.60;99.90
46890;DHT22;32625;51.080;16.970;2022-12-07T13:46:50;3.60;99.90
46890;DHT22;32625;51.080;16.970;2022-12-07T13:49:29;3.60;99.90
46890;DHT22;32625;51.080;16.970;2022-12-07T13:52:24;3.60;99.90
46890;DHT22;32625;51.080;16.970;2022-12-07T13:57:33;3.60;99.90
46890;DHT22;32625;51.080;16.970;2022-12-07T14:00:04;3.60;99.90
46890;DHT22;32625;51.080;16.970;2022-12-07T14:02:34;3.60;99.90
46890;DHT22;32625;51.080;16.970;2022-12-07T14:05:15;3.50;99.90
46890;DHT22;32625;51.080;16.970;2022-12-07T14:10:52;3.60;99.90
46890;DHT22;32625;51.080;16.970;2022-12-07T14:13:44;3.60;99.90
46890;DHT22;32625;51.080;16.970;2022-12-07T14:16:24;3.50;99.90
46890;DHT22;32625;51.080;16.970;2022-12-07T14:18:53;3.50;99.90
46890;DHT22;32625;51.080;16.970;2022-12-07T14:21:22;3.50;99.90
46890;DHT22;32625;51.080;16.970;2022-12-07T14:26:30;3.50;99.90
46890;DHT22;32625;51.080;16.970;2022-12-07T14:31:54;3.50;99.90
46890;DHT22;32625;51.080;16.970;2022-12-07T14:34:22;3.50;99.90
46890;DHT22;32625;51.080;16.970;2022-12-07T14:36:49;3.50;99.90
46890;DHT22;32625;51.080;16.970;2022-12-07T14:39:17;3.50;99.90
46890;DHT22;32625;51.080;16.970;2022-12-07T14:41:44;3.50;99.90
46890;DHT22;32625;51.080;16.970;2022-12-07T14:44:22;3.40;99.90
46890;DHT22;32625;51.080;16.970;2022-12-07T14:46:54;3.40;99.90
46890;DHT22;32625;51.080;16.970;2022-12-07T14:49:41;3.30;99.90
46890;DHT22;32625;51.080;16.970;2022-12-07T14:52:15;3.30;99.90
46890;DHT22;32625;51.080;16.970;2022-12-07T14:55:03;3.20;99.90
46890;DHT22;32625;51.080;16.970;2022-12-07T14:57:31;3.20;99.90
46890;DHT22;32625;51.080;16.970;2022-12-07T14:59:58;3.20;99.90
46890;DHT22;32625;51.080;16.970;2022-12-07T15:02:25;3.20;99.90
46890;DHT22;32625;51.080;16.970;2022-12-07T15:04:52;3.20;99.90
46890;DHT22;32625;51.080;16.970;2022-12-07T15:07:21;3.10;99.90
46890;DHT22;32625;51.080;16.970;2022-12-07T15:09:49;3.10;99.90
46890;DHT22;32625;51.080;16.970;2022-12-07T15:12:16;3.10;99.90
46890;DHT22;32625;51.080;16.970;2022-12-07T15:14:44;3.10;99.90
46890;DHT22;32625;51.080;16.970;2022-12-07T15:17:12;3.10;99.90
46890;DHT22;32625;51.080;16.970;2022-12-07T15:19:53;3.10;99.90
46890;DHT22;32625;51.080;16.970;2022-12-07T15:22:20;3.10;99.90
46890;DHT22;32625;51.080;16.970;2022-12-07T15:24:48;3.10;99.90
46890;DHT22;32625;51.080;16.970;2022-12-07T15:27:15;3.10;99.90
46890;DHT22;32625;51.080;16.970;2022-12-07T15:29:42;3.10;99.90
46890;DHT22;32625;51.080;16.970;2022-12-07T15:32:09;3.20;99.90
46890;DHT22;32625;51.080;16.970;2022-12-07T15:34:36;3.20;99.90
46890;DHT22;32625;51.080;16.970;2022-12-07T15:37:07;3.20;99.90
46890;DHT22;32625;51.080;16.970;2022-12-07T15:39:36;3.20;99.90
46890;DHT22;32625;51.080;16.970;2022-12-07T15:42:03;3.20;99.90
46890;DHT22;32625;51.080;16.970;2022-12-07T15:44:31;3.30;99.90
46890;DHT22;32625;51.080;16.970;2022-12-07T15:47:16;3.30;99.90
46890;DHT22;32625;51.080;16.970;2022-12-07T15:49:44;3.20;99.90
46890;DHT22;32625;51.080;16.970;2022-12-07T15:52:11;3.20;99.90
46890;DHT22;32625;51.080;16.970;2022-12-07T15:54:38;3.20;99.90
46890;DHT22;32625;51.080;16.970;2022-12-07T15:57:05;3.10;99.90
46890;DHT22;32625;51.080;16.970;2022-12-07T15:59:32;3.10;99.90
46890;DHT22;32625;51.080;16.970;2022-12-07T16:02:03;3.10;99.90
46890;DHT22;32625;51.080;16.970;2022-12-07T16:04:30;3.10;99.90
46890;DHT22;32625;51.080;16.970;2022-12-07T16:06:57;3.10;99.90
46890;DHT22;32625;51.080;16.970;2022-12-07T16:09:24;3.00;99.90
46890;DHT22;32625;51.080;16.970;2022-12-07T16:11:52;3.00;99.90
46890;DHT22;32625;51.080;16.970;2022-12-07T16:14:19;3.00;99.90
46890;DHT22;32625;51.080;16.970;2022-12-07T16:16:47;3.00;99.90
46890;DHT22;32625;51.080;16.970;2022-12-07T16:19:15;2.90;99.90
46890;DHT22;32625;51.080;16.970;2022-12-07T16:21:42;2.90;99.90
46890;DHT22;32625;51.080;16.970;2022-12-07T16:24:09;2.80;99.90
46890;DHT22;32625;51.080;16.970;2022-12-07T16:26:37;2.80;99.90
46890;DHT22;32625;51.080;16.970;2022-12-07T16:29:04;2.80;99.90
46890;DHT22;32625;51.080;16.970;2022-12-07T16:31:31;2.80;99.90
46890;DHT22;32625;51.080;16.970;2022-12-07T16:33:59;2.80;99.90
46890;DHT22;32625;51.080;16.970;2022-12-07T16:36:26;2.90;99.90
46890;DHT22;32625;51.080;16.970;2022-12-07T16:39:14;2.80;99.90
46890;DHT22;32625;51.080;16.970;2022-12-07T16:41:41;2.80;99.90
46890;DHT22;32625;51.080;16.970;2022-12-07T16:44:10;2.80;99.90
46890;DHT22;32625;51.080;16.970;2022-12-07T16:46:40;2.70;99.90
46890;DHT22;32625;51.080;16.970;2022-12-07T16:49:14;2.70;99.90
46890;DHT22;32625;51.080;16.970;2022-12-07T16:51:42;2.70;99.90
46890;DHT22;32625;51.080;16.970;2022-12-07T16:54:13;2.60;99.90
46890;DHT22;32625;51.080;16.970;2022-12-07T16:56:40;2.60;99.90
46890;DHT22;32625;51.080;16.970;2022-12-07T16:59:08;2.50;99.90
46890;DHT22;32625;51.080;16.970;2022-12-07T17:01:35;2.60;99.90
46890;DHT22;32625;51.080;16.970;2022-12-07T17:04:03;2.50;99.90
46890;DHT22;32625;51.080;16.970;2022-12-07T17:06:31;2.60;99.90
46890;DHT22;32625;51.080;16.970;2022-12-07T17:09:01;2.50;99.90
46890;DHT22;32625;51.080;16.970;2022-12-07T17:11:31;2.50;99.90
46890;DHT22;32625;51.080;16.970;2022-12-07T17:13:58;2.50;99.90
46890;DHT22;32625;51.080;16.970;2022-12-07T17:16:44;2.50;99.90
46890;DHT22;32625;51.080;16.970;2022-12-07T17:19:14;2.40;99.90
46890;DHT22;32625;51.080;16.970;2022-12-07T17:21:43;2.40;99.90
46890;DHT22;32625;51.080;16.970;2022-12-07T17:24:12;2.30;99.90
46890;DHT22;32625;51.080;16.970;2022-12-07T17:26:40;2.30;99.90
46890;DHT22;32625;51.080;16.970;2022-12-07T17:29:10;2.20;99.90
46890;DHT22;32625;51.080;16.970;2022-12-07T17:31:37;2.20;99.90
46890;DHT22;32625;51.080;16.970;2022-12-07T17:34:10;2.10;99.90
46890;DHT22;32625;51.080;16.970;2022-12-07T17:36:38;2.10;99.90
46890;DHT22;32625;51.080;16.970;2022-12-07T17:39:10;2.00;99.90
46890;DHT22;32625;51.080;16.970;2022-12-07T17:41:38;2.00;99.90
46890;DHT22;32625;51.080;16.970;2022-12-07T17:44:24;2.00;99.90
46890;DHT22;32625;51.080;16.970;2022-12-07T17:46:52;1.90;99.90
46890;DHT22;32625;51.080;16.970;2022-12-07T17:49:25;1.90;99.90
46890;DHT22;32625;51.080;16.970;2022-12-07T17:51:52;1.80;99.90
46890;DHT22;32625;51.080;16.970;2022-12-07T17:54:38;1.80;99.90
46890;DHT22;32625;51.080;16.970;2022-12-07T17:57:06;1.70;99.90
46890;DHT22;32625;51.080;16.970;2022-12-07T17:59:33;1.60;99.90
46890;DHT22;32625;51.080;16.970;2022-12-07T18:02:00;1.60;99.90
46890;DHT22;32625;51.080;16.970;2022-12-07T18:04:28;1.60;99.90